createdAt,value
2018-02-18T00:00:46.149Z,18.07
2018-02-18T00:03:11.994Z,20.80
2018-02-18T00:05:37.944Z,22.80
2018-02-18T00:08:03.794Z,19.33
2018-02-18T00:10:29.652Z,18.63
2018-02-18T00:12:55.682Z,22.00
2018-02-18T00:15:21.573Z,19.73
2018-02-18T00:17:47.456Z,16.83
2018-02-18T00:20:13.352Z,18.43
2018-02-18T00:22:39.202Z,18.53
2018-02-18T00:25:05.160Z,20.80
2018-02-18T00:27:31.057Z,22.33
2018-02-18T00:29:56.956Z,21.00
2018-02-18T00:32:22.811Z,20.50
2018-02-18T00:34:48.699Z,22.17
2018-02-18T00:37:14.677Z,19.20
2018-02-18T00:39:40.544Z,20.03
2018-02-18T00:42:06.811Z,23.43
2018-02-18T00:44:32.675Z,22.53
2018-02-18T00:46:58.651Z,20.20
2018-02-18T00:49:24.648Z,24.13
2018-02-18T00:51:50.502Z,22.40
2018-02-18T00:54:16.391Z,24.93
2018-02-18T00:56:42.291Z,20.33
2018-02-18T00:59:08.129Z,25.50
2018-02-18T01:01:34.104Z,21.97
2018-02-18T01:03:59.976Z,28.40
2018-02-18T01:06:25.883Z,25.23
2018-02-18T01:08:51.728Z,26.33
2018-02-18T01:11:17.634Z,25.03
2018-02-18T01:13:43.603Z,20.57
2018-02-18T01:16:09.505Z,19.40
2018-02-18T01:18:35.464Z,26.43
2018-02-18T01:21:01.322Z,22.97
2018-02-18T01:23:27.168Z,22.10
2018-02-18T01:25:53.192Z,19.20
2018-02-18T01:28:19.066Z,20.03
2018-02-18T01:30:44.961Z,19.73
2018-02-18T01:33:10.921Z,25.00
2018-02-18T01:35:36.815Z,22.50
2018-02-18T01:38:02.826Z,21.20
2018-02-18T01:40:28.725Z,24.77
2018-02-18T01:42:54.670Z,20.97
2018-02-18T01:45:20.515Z,23.50
2018-02-18T01:47:46.405Z,21.43
2018-02-18T01:50:24.752Z,24.73
2018-02-18T01:52:50.749Z,19.93
2018-02-18T01:55:16.648Z,23.20
2018-02-18T01:57:42.501Z,16.47
2018-02-18T02:00:08.393Z,22.63
2018-02-18T02:02:34.400Z,25.50
2018-02-18T02:05:00.353Z,21.00
2018-02-18T02:07:27.313Z,22.03
2018-02-18T02:09:53.220Z,20.03
2018-02-18T02:12:19.078Z,21.97
2018-02-18T02:14:45.392Z,18.70
2018-02-18T02:17:11.265Z,20.17
2018-02-18T02:19:37.171Z,15.40
2018-02-18T02:22:03.061Z,21.20
2018-02-18T02:24:28.926Z,19.53
2018-02-18T02:26:54.888Z,21.47
2018-02-18T02:29:20.804Z,16.00
2018-02-18T02:31:46.706Z,19.40
2018-02-18T02:34:12.564Z,16.00
2018-02-18T02:36:38.458Z,18.17
2018-02-18T02:39:04.536Z,20.37
2018-02-18T02:41:30.389Z,22.10
2018-02-18T02:43:56.326Z,19.63
2018-02-18T02:46:22.174Z,16.00
2018-02-18T02:48:48.046Z,19.27
2018-02-18T02:51:14.065Z,19.13
2018-02-18T02:53:39.920Z,20.60
2018-02-18T02:56:05.818Z,20.63
2018-02-18T02:58:31.704Z,18.03
2018-02-18T03:00:57.635Z,19.20
2018-02-18T03:03:23.616Z,16.40
2018-02-18T03:05:49.500Z,16.67
2018-02-18T03:08:15.399Z,15.57
2018-02-18T03:10:41.249Z,15.03
2018-02-18T03:13:07.138Z,20.17
2018-02-18T03:15:33.122Z,17.13
2018-02-18T03:17:58.958Z,20.37
2018-02-18T03:20:24.930Z,17.83
2018-02-18T03:22:50.820Z,20.07
2018-02-18T03:25:16.704Z,16.37
2018-02-18T03:27:42.729Z,15.20
2018-02-18T03:30:08.589Z,13.37
2018-02-18T03:32:34.490Z,17.87
2018-02-18T03:35:00.394Z,20.13
2018-02-18T03:37:26.238Z,18.87
2018-02-18T03:39:52.211Z,18.03
2018-02-18T03:42:18.098Z,16.97
2018-02-18T03:44:44.002Z,17.87
2018-02-18T03:47:09.840Z,17.43
2018-02-18T03:49:36.141Z,15.70
2018-02-18T03:52:02.122Z,16.00
2018-02-18T03:54:27.969Z,14.83
2018-02-18T03:56:54.064Z,18.37
2018-02-18T03:59:19.912Z,16.60
2018-02-18T04:01:45.768Z,15.27
2018-02-18T04:04:11.784Z,15.17
2018-02-18T04:06:37.633Z,18.77
2018-02-18T04:09:03.558Z,16.20
2018-02-18T04:11:29.522Z,20.17
2018-02-18T04:13:55.368Z,22.37
2018-02-18T04:16:21.328Z,18.03
2018-02-18T04:18:47.224Z,15.90
2018-02-18T04:21:13.141Z,12.33
2018-02-18T04:23:38.986Z,16.57
2018-02-18T04:26:04.897Z,15.90
2018-02-18T04:28:30.855Z,18.63
2018-02-18T04:30:56.702Z,19.37
2018-02-18T04:33:22.653Z,16.80
2018-02-18T04:35:48.488Z,16.03
2018-02-18T04:38:14.328Z,14.97
2018-02-18T04:40:40.358Z,16.13
2018-02-18T04:43:06.301Z,17.87
2018-02-18T04:45:32.213Z,17.57
2018-02-18T04:47:58.124Z,14.93
2018-02-18T04:50:23.978Z,19.30
2018-02-18T04:52:49.937Z,20.47
2018-02-18T04:55:15.829Z,19.33
2018-02-18T04:57:41.736Z,18.90
2018-02-18T05:00:07.579Z,17.40
2018-02-18T05:02:33.513Z,21.20
2018-02-18T05:04:59.497Z,23.03
2018-02-18T05:07:25.328Z,19.50
2018-02-18T05:09:51.262Z,13.77
2018-02-18T05:12:17.116Z,17.43
2018-02-18T05:14:42.944Z,18.37
2018-02-18T05:17:08.970Z,16.07
2018-02-18T05:19:34.835Z,15.93
2018-02-18T05:22:00.813Z,15.47
2018-02-18T05:24:27.091Z,16.77
2018-02-18T05:26:52.944Z,18.83
2018-02-18T05:29:18.921Z,15.93
2018-02-18T05:31:44.829Z,19.30
2018-02-18T05:34:10.736Z,17.40
2018-02-18T05:36:36.590Z,16.67
2018-02-18T05:39:02.550Z,20.77
2018-02-18T05:41:28.566Z,15.20
2018-02-18T05:43:54.536Z,14.00
2018-02-18T05:46:20.477Z,15.60
2018-02-18T05:48:46.323Z,17.20
2018-02-18T05:51:12.183Z,14.50
2018-02-18T05:53:39.056Z,20.47
2018-02-18T05:56:05.011Z,17.00
2018-02-18T05:58:30.932Z,15.47
2018-02-18T06:00:57.122Z,19.23
2018-02-18T06:03:22.990Z,17.93
2018-02-18T06:05:48.956Z,20.13
2018-02-18T06:08:14.840Z,18.50
2018-02-18T06:10:40.770Z,22.43
2018-02-18T06:13:06.700Z,16.70
2018-02-18T06:15:32.586Z,21.17
2018-02-18T06:17:58.529Z,17.07
2018-02-18T06:20:24.376Z,17.13
2018-02-18T06:22:50.270Z,16.60
2018-02-18T06:25:16.262Z,16.37
2018-02-18T06:27:43.224Z,16.83
2018-02-18T06:30:09.360Z,14.90
2018-02-18T06:32:35.386Z,17.93
2018-02-18T06:35:02.976Z,19.03
2018-02-18T06:37:28.892Z,18.47
2018-02-18T06:39:54.737Z,18.73
2018-02-18T06:42:20.743Z,17.13
2018-02-18T06:44:46.756Z,17.97
2018-02-18T06:47:12.626Z,18.17
2018-02-18T06:49:38.542Z,14.97
2018-02-18T06:52:04.635Z,15.03
2018-02-18T06:54:30.618Z,16.33
2018-02-18T06:56:56.526Z,14.63
2018-02-18T06:59:22.441Z,15.27
2018-02-18T07:01:48.296Z,14.47
2018-02-18T07:04:14.193Z,15.47
2018-02-18T07:06:40.096Z,15.47
2018-02-18T07:09:05.967Z,17.03
2018-02-18T07:11:31.906Z,14.30
2018-02-18T07:13:57.833Z,18.23
2018-02-18T07:16:23.720Z,20.83
2018-02-18T07:18:49.612Z,15.63
2018-02-18T07:21:18.088Z,13.57
2018-02-18T07:23:44.336Z,16.33
2018-02-18T07:26:10.202Z,13.97
2018-02-18T07:28:36.099Z,17.40
2018-02-18T07:31:01.958Z,14.93
2018-02-18T07:33:27.810Z,13.97
2018-02-18T07:35:53.836Z,16.43
2018-02-18T07:38:19.698Z,16.93
2018-02-18T07:40:45.781Z,17.40
2018-02-18T07:43:11.694Z,14.97
2018-02-18T07:45:37.616Z,14.63
2018-02-18T07:48:03.603Z,15.20
2018-02-18T07:50:29.492Z,14.77
2018-02-18T07:52:55.352Z,22.67
2018-02-18T07:55:21.230Z,16.07
2018-02-18T07:57:47.546Z,15.93
2018-02-18T08:00:13.496Z,20.03
2018-02-18T08:02:39.347Z,17.83
2018-02-18T08:05:05.237Z,15.53
2018-02-18T08:07:31.136Z,15.47
2018-02-18T08:09:57.005Z,16.07
2018-02-18T08:12:23.030Z,15.30
2018-02-18T08:14:48.883Z,14.87
2018-02-18T08:17:14.732Z,14.77
2018-02-18T08:19:40.690Z,15.97
2018-02-18T08:22:06.534Z,21.80
2018-02-18T08:24:32.546Z,15.40
2018-02-18T08:26:58.463Z,18.27
2018-02-18T08:29:24.330Z,17.30
2018-02-18T08:31:50.175Z,17.93
2018-02-18T08:34:16.060Z,13.27
2018-02-18T08:36:42.113Z,15.20
2018-02-18T08:39:07.980Z,12.43
2018-02-18T08:41:33.876Z,16.43
2018-02-18T08:43:59.754Z,16.13
2018-02-18T08:46:25.626Z,14.47
2018-02-18T08:48:51.602Z,13.57
2018-02-18T08:51:17.468Z,11.37
2018-02-18T08:53:43.313Z,10.37
2018-02-18T08:56:09.254Z,10.67
2018-02-18T08:58:35.102Z,11.67
2018-02-18T09:01:01.114Z,8.77
2018-02-18T09:03:27.014Z,7.60
2018-02-18T09:05:52.864Z,6.77
2018-02-18T09:08:18.760Z,10.23
2018-02-18T09:10:44.980Z,7.07
2018-02-18T09:13:10.976Z,7.50
2018-02-18T09:15:36.818Z,6.77
2018-02-18T09:18:02.701Z,5.67
2018-02-18T09:20:28.540Z,5.00
2018-02-18T09:22:54.376Z,6.43
2018-02-18T09:25:20.384Z,4.97
2018-02-18T09:27:46.238Z,4.23
2018-02-18T09:30:12.110Z,5.47
2018-02-18T09:32:38.291Z,6.97
2018-02-18T09:35:04.158Z,7.47
2018-02-18T09:37:30.100Z,5.10
2018-02-18T09:39:56.006Z,5.50
2018-02-18T09:42:21.856Z,6.67
2018-02-18T09:44:47.684Z,5.27
2018-02-18T09:47:13.680Z,5.03
2018-02-18T09:49:39.653Z,4.60
2018-02-18T09:52:05.510Z,3.40
2018-02-18T09:54:31.476Z,4.10
2018-02-18T09:56:57.343Z,4.87
2018-02-18T09:59:23.194Z,3.67
2018-02-18T10:01:49.167Z,3.97
2018-02-18T10:04:15.000Z,5.73
2018-02-18T10:06:40.854Z,3.37
2018-02-18T10:09:06.775Z,3.93
2018-02-18T10:11:32.608Z,3.23
2018-02-18T10:16:39.700Z,4.70
2018-02-18T10:19:05.529Z,4.30
2018-02-18T10:21:31.356Z,3.33
2018-02-18T10:23:57.297Z,2.43
2018-02-18T10:26:23.148Z,4.33
2018-02-18T10:28:49.085Z,3.03
2018-02-18T10:31:15.366Z,4.20
2018-02-18T10:33:41.208Z,3.57
2018-02-18T10:36:07.066Z,4.10
2018-02-18T10:38:32.972Z,3.90
2018-02-18T10:40:58.990Z,3.67
2018-02-18T10:43:24.831Z,3.97
2018-02-18T10:45:50.734Z,3.37
2018-02-18T10:48:16.586Z,4.43
2018-02-18T10:50:42.470Z,2.50
2018-02-18T10:53:08.851Z,4.70
2018-02-18T10:55:34.694Z,5.77
2018-02-18T10:58:00.536Z,3.80
2018-02-18T11:00:26.412Z,2.83
2018-02-18T11:02:52.248Z,3.33
2018-02-18T11:05:18.212Z,3.20
2018-02-18T11:07:44.144Z,3.93
2018-02-18T11:10:09.993Z,3.13
2018-02-18T11:12:35.841Z,2.93
2018-02-18T11:15:01.727Z,3.33
2018-02-18T11:17:27.662Z,3.07
2018-02-18T11:19:53.524Z,5.63
2018-02-18T11:22:19.507Z,6.73
2018-02-18T11:24:45.352Z,4.47
2018-02-18T11:27:11.198Z,4.40
2018-02-18T11:29:37.174Z,3.17
2018-02-18T11:32:03.017Z,3.83
2018-02-18T11:34:28.874Z,3.30
2018-02-18T11:36:55.111Z,4.03
2018-02-18T11:39:20.955Z,3.93
2018-02-18T11:41:46.890Z,2.77
2018-02-18T11:44:12.781Z,5.20
2018-02-18T11:46:38.708Z,3.07
2018-02-18T11:49:04.541Z,4.00
2018-02-18T11:51:30.468Z,2.97
2018-02-18T11:53:56.429Z,3.00
2018-02-18T11:56:22.290Z,4.73
2018-02-18T11:58:48.170Z,4.50
2018-02-18T12:01:14.011Z,5.37
2018-02-18T12:03:39.890Z,3.60
2018-02-18T12:06:05.902Z,3.83
2018-02-18T12:08:31.750Z,2.50
2018-02-18T12:10:57.580Z,6.03
2018-02-18T12:13:23.465Z,4.67
2018-02-18T12:15:49.302Z,4.53
2018-02-18T12:18:15.228Z,4.70
2018-02-18T12:20:41.115Z,5.20
2018-02-18T12:23:07.482Z,4.27
2018-02-18T12:25:34.129Z,4.30
2018-02-18T12:28:07.118Z,7.83
2018-02-18T12:30:33.013Z,5.97
2018-02-18T12:33:00.097Z,2.77
2018-02-18T12:35:25.992Z,3.07
2018-02-18T12:37:51.834Z,6.80
2018-02-18T12:40:17.706Z,5.73
2018-02-18T12:42:43.672Z,3.43
2018-02-18T12:45:09.522Z,2.53
2018-02-18T12:47:35.360Z,4.93
2018-02-18T12:50:01.253Z,10.97
2018-02-18T12:52:27.102Z,3.70
2018-02-18T12:54:53.038Z,4.83
2018-02-18T12:57:18.930Z,3.27
2018-02-18T12:59:44.780Z,3.77
2018-02-18T13:02:10.676Z,4.83
2018-02-18T13:04:36.563Z,4.73
2018-02-18T13:07:02.536Z,6.77
2018-02-18T13:09:28.384Z,3.70
2018-02-18T13:11:54.349Z,2.80
2018-02-18T13:14:20.206Z,4.53
2018-02-18T13:16:46.048Z,4.27
2018-02-18T13:19:12.025Z,3.87
2018-02-18T13:21:37.882Z,3.47
2018-02-18T13:24:03.730Z,5.73
2018-02-18T13:26:29.608Z,4.87
2018-02-18T13:28:55.454Z,6.00
2018-02-18T13:31:21.410Z,5.40
2018-02-18T13:33:47.302Z,4.17
2018-02-18T13:36:13.166Z,3.77
2018-02-18T13:38:39.021Z,6.27
2018-02-18T13:41:04.900Z,3.77
2018-02-18T13:43:30.858Z,4.77
2018-02-18T13:45:56.710Z,4.00
2018-02-18T13:48:22.591Z,3.80
2018-02-18T13:50:48.441Z,5.67
2018-02-18T13:53:14.276Z,4.73
2018-02-18T13:55:40.257Z,4.70
2018-02-18T13:58:06.104Z,4.20
2018-02-18T14:00:31.936Z,4.90
2018-02-18T14:02:57.834Z,5.33
2018-02-18T14:05:23.686Z,6.47
2018-02-18T14:07:49.620Z,4.67
2018-02-18T14:10:15.501Z,9.43
2018-02-18T14:12:41.364Z,5.40
2018-02-18T14:15:07.204Z,6.27
2018-02-18T14:17:33.093Z,5.33
2018-02-18T14:19:59.048Z,7.20
2018-02-18T14:22:24.914Z,6.53
2018-02-18T14:24:50.794Z,6.70
2018-02-18T14:27:16.639Z,6.83
2018-02-18T14:29:42.483Z,4.83
2018-02-18T14:32:08.480Z,3.50
2018-02-18T14:34:34.328Z,3.90
2018-02-18T14:37:00.242Z,6.40
2018-02-18T14:39:26.130Z,5.40
2018-02-18T14:42:04.204Z,5.23
2018-02-18T14:47:44.292Z,6.10
2018-02-18T14:50:22.527Z,5.47
2018-02-18T14:53:00.791Z,5.43
2018-02-18T14:55:39.102Z,6.10
2018-02-18T14:58:04.952Z,4.43
2018-02-18T15:00:30.779Z,4.93
2018-02-18T15:02:56.661Z,5.97
2018-02-18T15:05:22.514Z,6.50
2018-02-18T15:07:48.454Z,5.77
2018-02-18T15:10:14.378Z,12.53
2018-02-18T15:12:40.228Z,5.37
2018-02-18T15:15:06.074Z,8.13
2018-02-18T15:17:31.969Z,4.40
2018-02-18T15:19:57.930Z,7.43
2018-02-18T15:22:23.778Z,5.73
2018-02-18T15:24:49.672Z,6.00
2018-02-18T15:27:15.513Z,7.07
2018-02-18T15:29:41.348Z,5.83
2018-02-18T15:32:07.351Z,6.93
2018-02-18T15:34:33.198Z,7.03
2018-02-18T15:36:59.046Z,5.00
2018-02-18T15:39:25.195Z,9.13
2018-02-18T15:41:51.050Z,6.10
2018-02-18T15:44:17.082Z,11.13
2018-02-18T15:46:43.066Z,9.63
2018-02-18T15:49:09.210Z,7.77
2018-02-18T15:51:35.070Z,5.33
2018-02-18T15:54:00.966Z,6.10
2018-02-18T15:56:26.900Z,6.37
2018-02-18T15:58:52.732Z,4.50
2018-02-18T16:01:18.618Z,8.20
2018-02-18T16:03:44.460Z,6.20
2018-02-18T16:06:10.304Z,6.80
2018-02-18T16:08:36.268Z,6.57
2018-02-18T16:11:02.556Z,5.57
2018-02-18T16:13:28.446Z,8.23
2018-02-18T16:15:54.335Z,7.90
2018-02-18T16:18:20.241Z,8.73
2018-02-18T16:20:46.185Z,7.87
2018-02-18T16:23:12.124Z,9.70
2018-02-18T16:25:37.969Z,8.27
2018-02-18T16:28:03.804Z,10.73
2018-02-18T16:30:30.159Z,7.53
2018-02-18T16:32:56.136Z,9.80
2018-02-18T16:35:21.984Z,9.30
2018-02-18T16:37:47.886Z,10.70
2018-02-18T16:40:13.728Z,8.03
2018-02-18T16:42:39.568Z,11.93
2018-02-18T16:45:05.610Z,8.03
2018-02-18T16:47:31.486Z,7.63
2018-02-18T16:49:57.326Z,11.00
2018-02-18T16:52:23.250Z,9.50
2018-02-18T16:54:49.098Z,9.40
2018-02-18T16:57:15.057Z,8.47
2018-02-18T16:59:40.940Z,7.60
2018-02-18T17:02:06.776Z,5.73
2018-02-18T17:04:32.997Z,6.67
2018-02-18T17:06:59.249Z,7.33
2018-02-18T17:09:25.208Z,6.43
2018-02-18T17:11:51.044Z,7.20
2018-02-18T17:14:16.931Z,7.73
2018-02-18T17:16:42.778Z,7.43
2018-02-18T17:19:08.638Z,6.77
2018-02-18T17:21:34.630Z,5.67
2018-02-18T17:24:00.479Z,6.93
2018-02-18T17:26:26.604Z,7.27
2018-02-18T17:28:52.501Z,11.33
2018-02-18T17:31:18.386Z,8.70
2018-02-18T17:33:44.308Z,7.97
2018-02-18T17:36:10.365Z,5.47
2018-02-18T17:38:36.367Z,7.17
2018-02-18T17:41:02.238Z,6.23
2018-02-18T17:43:28.117Z,8.70
2018-02-18T17:45:54.078Z,6.80
2018-02-18T17:48:19.969Z,7.80
2018-02-18T17:50:46.156Z,8.57
2018-02-18T17:53:12.019Z,6.63
2018-02-18T17:55:38.345Z,5.83
2018-02-18T17:58:05.658Z,9.07
2018-02-18T18:00:31.643Z,7.97
2018-02-18T18:02:57.489Z,7.63
2018-02-18T18:05:23.461Z,6.63
2018-02-18T18:07:49.310Z,9.20
2018-02-18T18:10:15.199Z,8.13
2018-02-18T18:12:41.150Z,10.27
2018-02-18T18:15:07.068Z,7.37
2018-02-18T18:17:32.904Z,8.20
2018-02-18T18:19:58.795Z,8.20
2018-02-18T18:22:24.642Z,8.43
2018-02-18T18:24:50.548Z,7.77
2018-02-18T18:27:16.862Z,11.67
2018-02-18T18:29:42.719Z,11.97
2018-02-18T18:32:08.660Z,8.33
2018-02-18T18:34:34.548Z,10.07
2018-02-18T18:37:00.444Z,8.77
2018-02-18T18:39:26.373Z,7.43
2018-02-18T18:41:52.252Z,9.23
2018-02-18T18:44:18.093Z,9.33
2018-02-18T18:46:43.932Z,7.67
2018-02-18T18:49:09.875Z,12.27
2018-02-18T18:51:35.817Z,10.10
2018-02-18T18:54:01.658Z,7.97
2018-02-18T18:56:27.536Z,6.80
2018-02-18T18:58:53.368Z,8.37
2018-02-18T19:01:19.269Z,8.57
2018-02-18T19:03:45.246Z,8.47
2018-02-18T19:06:11.086Z,11.47
2018-02-18T19:08:36.916Z,8.33
2018-02-18T19:11:02.791Z,8.60
2018-02-18T19:13:28.697Z,8.07
2018-02-18T19:15:54.639Z,10.40
2018-02-18T19:18:20.575Z,11.20
2018-02-18T19:20:46.423Z,11.83
2018-02-18T19:23:12.264Z,9.03
2018-02-18T19:25:38.212Z,8.60
2018-02-18T19:28:04.141Z,9.67
2018-02-18T19:30:30.060Z,9.63
2018-02-18T19:32:55.948Z,10.07
2018-02-18T19:35:21.795Z,8.87
2018-02-18T19:37:47.700Z,7.30
2018-02-18T19:40:13.680Z,7.83
2018-02-18T19:42:39.515Z,9.30
2018-02-18T19:45:05.458Z,10.53
2018-02-18T19:47:31.663Z,10.23
2018-02-18T19:49:57.863Z,9.60
2018-02-18T19:52:24.119Z,8.80
2018-02-18T19:54:50.136Z,9.87
2018-02-18T19:57:16.514Z,9.63
2018-02-18T19:59:42.395Z,9.80
2018-02-18T20:02:08.790Z,8.53
2018-02-18T20:04:35.310Z,11.23
2018-02-18T20:07:01.528Z,13.73
2018-02-18T20:09:27.452Z,9.50
2018-02-18T20:11:53.376Z,12.63
2018-02-18T20:14:19.268Z,12.17
2018-02-18T20:16:45.265Z,10.73
2018-02-18T20:19:11.313Z,11.33
2018-02-18T20:21:37.188Z,13.10
2018-02-18T20:24:03.565Z,14.40
2018-02-18T20:26:29.502Z,13.43
2018-02-18T20:28:55.436Z,12.60
2018-02-18T20:31:21.921Z,11.50
2018-02-18T20:33:47.896Z,32.57
2018-02-18T20:36:13.746Z,39.30
2018-02-18T20:38:39.724Z,29.33
2018-02-18T20:41:05.662Z,23.10
2018-02-18T20:43:31.907Z,40.17
2018-02-18T20:45:57.853Z,24.87
2018-02-18T20:48:23.708Z,38.40
2018-02-18T20:50:50.097Z,23.27
2018-02-18T20:53:16.114Z,21.80
2018-02-18T20:55:42.359Z,15.60
2018-02-18T20:58:08.341Z,14.60
2018-02-18T21:00:34.461Z,11.17
2018-02-18T21:03:00.368Z,16.73
2018-02-18T21:05:26.306Z,13.07
2018-02-18T21:07:52.237Z,11.20
2018-02-18T21:10:18.113Z,11.60
2018-02-18T21:12:44.159Z,11.57
2018-02-18T21:15:10.121Z,12.27
2018-02-18T21:17:43.025Z,11.57
2018-02-18T21:20:08.889Z,10.50
2018-02-18T21:22:34.816Z,15.17
2018-02-18T21:25:01.003Z,10.80
2018-02-18T21:27:26.924Z,13.00
2018-02-18T21:29:52.884Z,11.80
2018-02-18T21:32:18.788Z,32.93
2018-02-18T21:34:44.642Z,18.63
2018-02-18T21:37:10.940Z,16.93
2018-02-18T21:39:36.851Z,19.33
2018-02-18T21:42:02.790Z,15.83
2018-02-18T21:44:28.681Z,14.63
2018-02-18T21:46:54.528Z,14.07
2018-02-18T21:49:20.368Z,15.53
2018-02-18T21:51:46.342Z,13.97
2018-02-18T21:54:12.325Z,12.60
2018-02-18T21:56:38.237Z,12.17
2018-02-18T21:59:04.225Z,14.13
2018-02-18T22:01:30.082Z,13.10
2018-02-18T22:03:56.068Z,14.57
2018-02-18T22:06:21.981Z,13.90
2018-02-18T22:08:47.823Z,11.53
2018-02-18T22:11:13.681Z,14.30
2018-02-18T22:13:39.570Z,12.17
2018-02-18T22:16:05.494Z,15.37
2018-02-18T22:18:31.334Z,17.70
2018-02-18T22:20:57.209Z,15.27
2018-02-18T22:23:23.061Z,17.37
2018-02-18T22:25:48.909Z,13.07
2018-02-18T22:28:14.788Z,13.83
2018-02-18T22:30:40.622Z,13.47
2018-02-18T22:33:06.465Z,14.43
2018-02-18T22:35:32.440Z,12.97
2018-02-18T22:37:58.278Z,13.77
2018-02-18T22:40:24.127Z,16.27
2018-02-18T22:42:50.004Z,19.40
2018-02-18T22:45:15.843Z,13.77
2018-02-18T22:47:41.682Z,12.93
2018-02-18T22:50:07.578Z,13.00
2018-02-18T22:52:33.420Z,14.07
2018-02-18T22:54:59.314Z,12.30
2018-02-18T22:57:25.211Z,14.83
2018-02-18T22:59:51.153Z,13.27
2018-02-18T23:02:16.992Z,12.33
2018-02-18T23:04:42.888Z,11.40
2018-02-18T23:07:08.739Z,12.30
2018-02-18T23:09:34.580Z,14.93
2018-02-18T23:12:00.481Z,14.57
2018-02-18T23:14:26.325Z,12.47
2018-02-18T23:16:52.186Z,12.30
2018-02-18T23:19:18.105Z,12.77
2018-02-18T23:21:43.940Z,12.83
2018-02-18T23:24:09.787Z,14.43
2018-02-18T23:26:35.668Z,12.70
2018-02-18T23:29:01.507Z,13.17
2018-02-18T23:31:27.346Z,12.83
2018-02-18T23:33:53.247Z,13.77
2018-02-18T23:36:19.098Z,10.30
2018-02-18T23:38:44.931Z,12.20
2018-02-18T23:41:10.948Z,15.10
2018-02-18T23:43:36.806Z,13.97
2018-02-18T23:46:02.653Z,13.60
2018-02-18T23:48:28.616Z,13.60
2018-02-18T23:50:54.470Z,11.23
2018-02-18T23:53:20.309Z,13.17
2018-02-18T23:55:46.244Z,13.57
2018-02-18T23:58:12.082Z,12.43
